createdAt,value
2018-07-28T00:00:37.444Z,27.10
2018-07-28T00:03:06.509Z,27.10
2018-07-28T00:05:35.194Z,27.00
2018-07-28T00:08:04.165Z,27.00
2018-07-28T00:10:33.201Z,27.00
2018-07-28T00:13:01.700Z,27.00
2018-07-28T00:15:30.291Z,27.00
2018-07-28T00:17:58.905Z,27.00
2018-07-28T00:20:28.027Z,27.00
2018-07-28T00:22:56.636Z,27.00
2018-07-28T00:25:25.427Z,26.90
2018-07-28T00:27:53.944Z,26.90
2018-07-28T00:30:22.432Z,26.90
2018-07-28T00:32:50.993Z,26.90
2018-07-28T00:35:19.525Z,26.90
2018-07-28T00:37:48.136Z,26.90
2018-07-28T00:40:16.646Z,26.80
2018-07-28T00:42:45.088Z,26.80
2018-07-28T00:45:13.825Z,26.80
2018-07-28T00:47:42.361Z,26.70
2018-07-28T00:50:10.976Z,26.70
2018-07-28T00:52:39.680Z,26.70
2018-07-28T00:55:08.479Z,26.70
2018-07-28T00:57:37.033Z,26.60
2018-07-28T01:00:07.116Z,26.60
2018-07-28T01:02:35.546Z,26.50
2018-07-28T01:05:04.672Z,26.50
2018-07-28T01:07:33.374Z,26.50
2018-07-28T01:10:01.855Z,26.40
2018-07-28T01:12:30.489Z,26.40
2018-07-28T01:14:59.128Z,26.40
2018-07-28T01:17:28.029Z,26.30
2018-07-28T01:19:56.584Z,26.40
2018-07-28T01:22:25.119Z,26.40
2018-07-28T01:24:54.057Z,26.40
2018-07-28T01:27:22.569Z,26.30
2018-07-28T01:29:51.376Z,26.30
2018-07-28T01:32:19.804Z,26.20
2018-07-28T01:34:48.249Z,26.20
2018-07-28T01:37:17.017Z,26.10
2018-07-28T01:42:13.640Z,25.90
2018-07-28T01:44:42.207Z,25.90
2018-07-28T01:47:10.721Z,25.90
2018-07-28T01:49:39.184Z,25.90
2018-07-28T01:52:07.888Z,25.90
2018-07-28T01:54:36.642Z,25.80
2018-07-28T01:57:05.161Z,25.70
2018-07-28T01:59:33.643Z,25.80
2018-07-28T02:02:02.148Z,25.70
2018-07-28T02:04:30.657Z,25.50
2018-07-28T02:06:59.205Z,25.40
2018-07-28T02:14:24.313Z,25.10
2018-07-28T02:16:53.185Z,25.00
2018-07-28T02:19:22.326Z,24.90
2018-07-28T02:21:50.772Z,24.80
2018-07-28T02:24:19.278Z,24.80
2018-07-28T02:26:47.856Z,24.60
2018-07-28T02:29:16.260Z,24.60
2018-07-28T02:31:44.770Z,24.50
2018-07-28T02:34:13.246Z,24.50
2018-07-28T02:36:41.758Z,24.40
2018-07-28T02:39:11.512Z,24.40
2018-07-28T02:41:40.573Z,24.30
2018-07-28T02:44:09.340Z,24.30
2018-07-28T02:46:38.263Z,24.20
2018-07-28T02:49:07.203Z,24.10
2018-07-28T02:51:35.733Z,24.10
2018-07-28T02:54:04.207Z,24.20
2018-07-28T02:56:32.664Z,24.20
2018-07-28T02:59:01.563Z,24.40
2018-07-28T03:01:29.964Z,24.60
2018-07-28T03:03:58.379Z,24.70
2018-07-28T03:06:27.307Z,24.80
2018-07-28T03:08:55.762Z,24.90
2018-07-28T03:11:24.235Z,25.00
2018-07-28T03:13:52.744Z,25.10
2018-07-28T03:16:21.164Z,25.20
2018-07-28T03:18:49.918Z,25.20
2018-07-28T03:21:18.395Z,25.20
2018-07-28T03:26:15.047Z,25.20
2018-07-28T03:28:43.518Z,25.10
2018-07-28T03:31:11.936Z,25.20
2018-07-28T03:33:40.439Z,25.20
2018-07-28T03:36:08.844Z,25.10
2018-07-28T03:38:37.248Z,25.10
2018-07-28T03:41:05.721Z,25.20
2018-07-28T03:46:02.368Z,25.20
2018-07-28T03:48:30.857Z,25.10
2018-07-28T03:50:59.312Z,25.10
2018-07-28T03:53:27.762Z,25.10
2018-07-28T03:55:56.224Z,25.00
2018-07-28T03:58:24.827Z,24.90
2018-07-28T04:00:53.285Z,24.90
2018-07-28T04:03:21.717Z,24.90
2018-07-28T04:05:50.172Z,24.90
2018-07-28T04:08:18.584Z,24.80
2018-07-28T04:10:47.056Z,24.80
2018-07-28T04:13:15.551Z,24.80
2018-07-28T04:15:43.998Z,24.80
2018-07-28T04:18:12.444Z,24.90
2018-07-28T04:20:40.886Z,24.90
2018-07-28T04:23:09.341Z,24.90
2018-07-28T04:25:37.943Z,25.00
2018-07-28T04:28:06.397Z,25.20
2018-07-28T04:30:34.839Z,25.50
2018-07-28T04:33:03.297Z,25.80
2018-07-28T04:35:31.781Z,26.20
2018-07-28T04:38:00.527Z,26.50
2018-07-28T04:40:29.017Z,27.00
2018-07-28T04:42:57.489Z,27.40
2018-07-28T04:45:25.926Z,27.80
2018-07-28T04:47:54.393Z,28.20
2018-07-28T04:50:22.964Z,28.70
2018-07-28T04:52:51.764Z,29.10
2018-07-28T04:55:20.291Z,29.60
2018-07-28T04:57:48.827Z,29.90
2018-07-28T05:00:17.280Z,30.30
2018-07-28T05:02:45.833Z,30.70
2018-07-28T05:05:14.326Z,31.20
2018-07-28T05:07:42.985Z,31.50
2018-07-28T05:10:11.229Z,31.90
2018-07-28T05:12:39.673Z,32.30
2018-07-28T05:15:08.187Z,32.70
2018-07-28T05:17:36.748Z,33.00
2018-07-28T05:20:05.251Z,33.50
2018-07-28T05:22:33.697Z,33.80
2018-07-28T05:25:02.216Z,34.30
2018-07-28T05:27:30.812Z,34.60
2018-07-28T05:29:59.350Z,34.70
2018-07-28T05:32:28.063Z,35.10
2018-07-28T05:34:56.612Z,35.40
2018-07-28T05:39:54.037Z,34.40
2018-07-28T05:42:22.525Z,33.60
2018-07-28T05:44:51.049Z,32.60
2018-07-28T05:47:19.738Z,31.70
2018-07-28T05:49:48.242Z,31.00
2018-07-28T05:52:16.821Z,30.50
2018-07-28T05:54:45.274Z,30.00
2018-07-28T05:57:13.862Z,29.60
2018-07-28T05:59:42.300Z,29.20
2018-07-28T06:02:11.280Z,28.80
2018-07-28T06:04:39.744Z,28.40
2018-07-28T06:07:08.261Z,28.10
2018-07-28T06:09:37.053Z,27.90
2018-07-28T06:12:05.612Z,27.80
2018-07-28T06:14:34.067Z,27.70
2018-07-28T06:17:02.699Z,27.60
2018-07-28T06:19:31.221Z,27.50
2018-07-28T06:21:59.910Z,27.50
2018-07-28T06:24:28.320Z,27.40
2018-07-28T06:26:56.880Z,27.30
2018-07-28T06:29:25.412Z,27.20
2018-07-28T06:31:54.013Z,27.10
2018-07-28T06:34:22.467Z,26.90
2018-07-28T06:36:50.953Z,26.60
2018-07-28T06:39:19.745Z,26.30
2018-07-28T06:41:48.261Z,26.00
2018-07-28T06:44:16.875Z,25.60
2018-07-28T06:46:45.644Z,25.20
2018-07-28T06:49:14.087Z,24.90
2018-07-28T06:51:43.112Z,24.70
2018-07-28T06:54:11.977Z,24.50
2018-07-28T06:56:40.465Z,24.50
2018-07-28T06:59:09.039Z,24.50
2018-07-28T07:01:37.529Z,24.60
2018-07-28T07:04:06.084Z,24.70
2018-07-28T07:06:34.754Z,24.80
2018-07-28T07:09:04.095Z,25.00
2018-07-28T07:11:32.832Z,25.20
2018-07-28T07:14:01.256Z,25.40
2018-07-28T07:16:29.801Z,25.60
2018-07-28T07:18:58.301Z,25.80
2018-07-28T07:21:26.876Z,26.10
2018-07-28T07:23:55.421Z,26.30
2018-07-28T07:26:24.263Z,26.60
2018-07-28T07:28:52.827Z,26.80
2018-07-28T07:31:21.252Z,27.00
2018-07-28T07:33:49.730Z,27.20
2018-07-28T07:36:18.339Z,27.30
2018-07-28T07:38:46.963Z,27.40
2018-07-28T07:41:15.789Z,27.50
2018-07-28T07:43:44.212Z,27.60
2018-07-28T07:46:14.127Z,27.70
2018-07-28T07:48:42.630Z,27.90
2018-07-28T07:51:11.084Z,28.00
2018-07-28T07:53:39.831Z,28.10
2018-07-28T07:56:09.291Z,28.30
2018-07-28T07:58:37.729Z,28.50
2018-07-28T08:01:06.209Z,28.60
2018-07-28T08:03:34.775Z,28.80
2018-07-28T08:06:03.363Z,28.90
2018-07-28T08:08:31.913Z,29.00
2018-07-28T08:11:00.600Z,29.00
2018-07-28T08:13:29.209Z,29.10
2018-07-28T08:15:57.839Z,29.10
2018-07-28T08:18:26.334Z,29.30
2018-07-28T08:20:54.876Z,29.30
2018-07-28T08:23:23.408Z,29.40
2018-07-28T08:25:51.901Z,29.50
2018-07-28T08:28:21.281Z,29.40
2018-07-28T08:30:49.848Z,29.40
2018-07-28T08:33:18.561Z,29.30
2018-07-28T08:35:46.996Z,29.10
2018-07-28T08:38:15.752Z,28.90
2018-07-28T08:40:44.248Z,28.70
2018-07-28T08:43:19.512Z,28.60
2018-07-28T08:45:48.000Z,28.50
2018-07-28T08:48:16.510Z,28.50
2018-07-28T08:50:44.992Z,28.50
2018-07-28T08:53:13.734Z,28.60
2018-07-28T08:55:42.364Z,28.70
2018-07-28T08:58:10.907Z,28.90
2018-07-28T09:00:39.447Z,29.10
2018-07-28T09:03:09.145Z,29.30
2018-07-28T09:05:39.699Z,29.60
2018-07-28T09:08:08.217Z,29.80
2018-07-28T09:10:36.959Z,30.00
2018-07-28T09:13:06.266Z,30.20
2018-07-28T09:15:35.359Z,30.40
2018-07-28T09:18:07.987Z,30.60
2018-07-28T09:20:55.756Z,30.80
2018-07-28T09:23:27.447Z,31.10
2018-07-28T09:25:57.270Z,31.40
2018-07-28T09:28:26.680Z,31.80
2018-07-28T09:30:55.279Z,32.10
2018-07-28T09:33:24.420Z,32.50
2018-07-28T09:35:52.902Z,33.20
2018-07-28T09:38:21.334Z,34.20
2018-07-28T09:40:49.777Z,35.20
2018-07-28T09:43:18.578Z,35.70
2018-07-28T09:45:47.225Z,36.10
2018-07-28T09:48:15.953Z,36.30
2018-07-28T09:50:44.529Z,36.60
2018-07-28T09:53:13.024Z,36.50
2018-07-28T09:55:41.543Z,36.70
2018-07-28T09:58:10.288Z,36.70
2018-07-28T10:01:45.873Z,36.70
2018-07-28T10:04:14.393Z,36.50
2018-07-28T10:06:42.904Z,36.00
2018-07-28T10:09:12.424Z,35.50
2018-07-28T10:11:40.966Z,34.90
2018-07-28T10:14:09.790Z,34.50
2018-07-28T10:16:38.339Z,34.40
2018-07-28T10:19:08.195Z,34.00
2018-07-28T10:21:37.260Z,33.80
2018-07-28T10:24:06.173Z,33.50
2018-07-28T10:26:34.669Z,33.00
2018-07-28T10:29:03.206Z,32.60
2018-07-28T10:31:31.693Z,32.30
2018-07-28T10:34:00.253Z,32.30
2018-07-28T10:36:31.219Z,32.20
2018-07-28T10:38:59.701Z,32.30
2018-07-28T10:41:28.241Z,32.30
2018-07-28T10:43:56.819Z,32.60
2018-07-28T10:46:25.245Z,33.10
2018-07-28T10:48:53.770Z,33.60
2018-07-28T10:51:22.261Z,34.20
2018-07-28T10:53:50.707Z,34.70
2018-07-28T10:56:19.183Z,35.30
2018-07-28T10:58:47.597Z,35.60
2018-07-28T11:01:16.448Z,36.00
2018-07-28T11:03:44.946Z,36.50
2018-07-28T11:06:13.460Z,36.90
2018-07-28T11:08:42.781Z,37.30
2018-07-28T11:11:11.229Z,37.80
2018-07-28T11:13:39.709Z,37.80
2018-07-28T11:16:08.527Z,37.70
2018-07-28T11:18:37.004Z,37.30
2018-07-28T11:21:05.531Z,36.80
2018-07-28T11:23:45.202Z,36.60
2018-07-28T11:26:13.763Z,36.20
2018-07-28T11:28:42.493Z,35.70
2018-07-28T11:33:56.476Z,35.50
2018-07-28T11:36:36.183Z,34.90
2018-07-28T11:39:16.007Z,34.80
2018-07-28T11:41:55.537Z,34.70
2018-07-28T11:44:35.905Z,34.50
2018-07-28T11:47:04.559Z,34.40
2018-07-28T11:49:33.023Z,34.10
2018-07-28T11:52:01.590Z,33.90
2018-07-28T11:54:30.090Z,33.80
2018-07-28T11:56:58.949Z,33.60
2018-07-28T11:59:27.503Z,34.10
2018-07-28T12:01:56.085Z,34.40
2018-07-28T12:04:24.793Z,34.60
2018-07-28T12:06:53.721Z,34.80
2018-07-28T12:09:22.217Z,34.80
2018-07-28T12:11:51.538Z,34.50
2018-07-28T12:14:20.189Z,34.10
2018-07-28T12:16:49.316Z,34.20
2018-07-28T12:19:17.825Z,34.40
2018-07-28T12:21:46.315Z,34.60
2018-07-28T12:24:14.789Z,34.70
2018-07-28T12:26:43.276Z,34.80
2018-07-28T12:29:11.809Z,34.80
2018-07-28T12:31:40.691Z,34.70
2018-07-28T12:34:09.759Z,34.80
2018-07-28T12:36:38.262Z,34.80
2018-07-28T12:39:09.040Z,34.50
2018-07-28T12:41:37.569Z,34.50
2018-07-28T12:44:06.125Z,34.50
2018-07-28T12:46:34.572Z,34.40
2018-07-28T12:49:03.041Z,34.40
2018-07-28T12:51:31.902Z,34.50
2018-07-28T12:54:00.377Z,34.40
2018-07-28T12:56:28.873Z,34.20
2018-07-28T12:58:57.504Z,34.20
2018-07-28T13:01:26.139Z,34.20
2018-07-28T13:03:54.778Z,34.20
2018-07-28T13:06:23.260Z,34.30
2018-07-28T13:08:51.709Z,34.50
2018-07-28T13:11:20.399Z,34.60
2018-07-28T13:13:48.844Z,34.70
2018-07-28T13:16:17.419Z,34.80
2018-07-28T13:18:45.942Z,34.80
2018-07-28T13:23:42.897Z,35.10
2018-07-28T13:26:11.336Z,35.00
2018-07-28T13:28:39.811Z,35.10
2018-07-28T13:31:08.268Z,35.10
2018-07-28T13:33:37.023Z,35.00
2018-07-28T13:36:05.554Z,34.90
2018-07-28T13:38:34.026Z,34.60
2018-07-28T13:41:02.580Z,34.50
2018-07-28T13:43:31.009Z,34.40
2018-07-28T13:45:59.473Z,34.50
2018-07-28T13:48:28.717Z,34.60
2018-07-28T13:50:57.243Z,34.70
2018-07-28T13:53:25.913Z,34.80
2018-07-28T13:55:54.340Z,34.70
2018-07-28T13:58:22.766Z,34.90
2018-07-28T14:00:51.386Z,35.00
2018-07-28T14:03:19.897Z,34.90
2018-07-28T14:05:48.573Z,35.00
2018-07-28T14:08:17.065Z,35.00
2018-07-28T14:10:45.638Z,35.00
2018-07-28T14:13:14.197Z,34.90
2018-07-28T14:15:42.712Z,34.60
2018-07-28T14:18:11.264Z,34.50
2018-07-28T14:20:39.624Z,34.50
2018-07-28T14:23:08.178Z,34.40
2018-07-28T14:25:36.634Z,34.40
2018-07-28T14:28:05.743Z,34.20
2018-07-28T14:33:02.473Z,33.90
2018-07-28T14:35:31.680Z,33.90
2018-07-28T14:38:08.927Z,34.00
2018-07-28T14:40:37.512Z,34.10
2018-07-28T14:43:06.165Z,34.30
2018-07-28T14:45:35.322Z,34.40
2018-07-28T14:48:04.838Z,34.50
2018-07-28T14:50:33.579Z,34.40
2018-07-28T14:53:02.449Z,34.00
2018-07-28T14:55:31.004Z,33.60
2018-07-28T14:57:59.532Z,33.40
2018-07-28T15:00:28.165Z,33.30
2018-07-28T15:02:56.633Z,33.50
2018-07-28T15:07:54.566Z,33.90
2018-07-28T15:10:23.040Z,33.80
2018-07-28T15:12:51.570Z,33.60
2018-07-28T15:15:20.074Z,33.50
2018-07-28T15:17:48.592Z,33.40
2018-07-28T15:20:17.294Z,33.40
2018-07-28T15:22:45.764Z,33.40
2018-07-28T15:25:14.260Z,33.30
2018-07-28T15:27:42.762Z,33.10
2018-07-28T15:30:11.213Z,32.90
2018-07-28T15:32:39.769Z,32.60
2018-07-28T15:35:08.374Z,32.70
2018-07-28T15:37:36.828Z,32.70
2018-07-28T15:40:05.387Z,32.60
2018-07-28T15:42:33.861Z,32.50
2018-07-28T15:45:02.361Z,32.60
2018-07-28T15:47:30.921Z,32.70
2018-07-28T15:49:59.415Z,32.80
2018-07-28T15:52:27.855Z,32.80
2018-07-28T15:54:56.628Z,32.90
2018-07-28T15:57:25.076Z,33.00
2018-07-28T15:59:53.623Z,33.00
2018-07-28T16:02:22.065Z,32.90
2018-07-28T16:04:51.056Z,32.70
2018-07-28T16:07:19.635Z,32.70
2018-07-28T16:09:48.175Z,32.60
2018-07-28T16:12:16.695Z,32.60
2018-07-28T16:14:45.273Z,32.60
2018-07-28T16:17:13.942Z,32.50
2018-07-28T16:19:42.414Z,32.50
2018-07-28T16:22:10.937Z,32.50
2018-07-28T16:24:39.429Z,32.30
2018-07-28T16:27:07.972Z,32.20
2018-07-28T16:29:36.456Z,32.00
2018-07-28T16:32:04.935Z,31.80
2018-07-28T16:34:33.508Z,31.60
2018-07-28T16:37:02.041Z,31.50
2018-07-28T16:39:30.510Z,31.40
2018-07-28T16:41:58.961Z,31.20
2018-07-28T16:44:27.417Z,30.90
2018-07-28T16:46:55.904Z,30.90
2018-07-28T16:49:24.402Z,30.80
2018-07-28T16:51:52.981Z,30.70
2018-07-28T16:54:21.513Z,30.50
2018-07-28T16:56:49.991Z,30.20
2018-07-28T16:59:18.474Z,30.10
2018-07-28T17:01:46.904Z,30.00
2018-07-28T17:04:15.737Z,30.00
2018-07-28T17:06:44.785Z,29.80
2018-07-28T17:09:13.330Z,29.70
2018-07-28T17:11:42.732Z,29.50
2018-07-28T17:14:11.689Z,29.40
2018-07-28T17:16:40.224Z,29.20
2018-07-28T17:19:08.823Z,29.00
2018-07-28T17:21:37.461Z,29.00
2018-07-28T17:24:06.805Z,29.00
2018-07-28T17:29:04.054Z,28.90
2018-07-28T17:31:32.616Z,28.80
2018-07-28T17:34:01.208Z,28.80
2018-07-28T17:36:29.740Z,28.90
2018-07-28T17:38:58.711Z,28.90
2018-07-28T17:41:27.221Z,29.00
2018-07-28T17:43:55.705Z,29.00
2018-07-28T17:46:24.233Z,29.10
2018-07-28T17:48:52.737Z,29.00
2018-07-28T17:51:24.163Z,29.00
2018-07-28T17:53:53.524Z,29.00
2018-07-28T17:56:23.103Z,29.00
2018-07-28T17:58:51.950Z,29.00
2018-07-28T18:01:20.549Z,28.90
2018-07-28T18:03:50.060Z,28.90
2018-07-28T18:06:20.151Z,28.80
2018-07-28T18:08:48.770Z,28.70
2018-07-28T18:11:17.744Z,28.60
2018-07-28T18:13:46.360Z,28.60
2018-07-28T18:16:14.929Z,28.50
2018-07-28T18:18:43.714Z,28.40
2018-07-28T18:21:12.391Z,28.40
2018-07-28T18:23:40.865Z,28.30
2018-07-28T18:26:09.463Z,28.10
2018-07-28T18:28:38.053Z,28.00
2018-07-28T18:31:09.303Z,27.80
2018-07-28T18:33:37.877Z,27.70
2018-07-28T18:36:06.568Z,27.70
2018-07-28T18:38:35.072Z,27.50
2018-07-28T18:41:03.789Z,27.40
2018-07-28T18:43:35.459Z,27.40
2018-07-28T18:46:04.149Z,27.30
2018-07-28T18:48:32.941Z,27.20
2018-07-28T18:53:32.056Z,27.00
2018-07-28T18:56:00.721Z,26.90
2018-07-28T18:58:29.408Z,26.90
2018-07-28T19:00:57.858Z,26.80
2018-07-28T19:03:26.662Z,26.80
2018-07-28T19:05:55.109Z,26.80
2018-07-28T19:08:23.602Z,26.70
2018-07-28T19:10:53.742Z,26.70
2018-07-28T19:15:56.346Z,26.50
2018-07-28T19:18:30.221Z,26.40
2018-07-28T19:20:58.835Z,26.30
2018-07-28T19:23:33.138Z,26.20
2018-07-28T19:26:01.679Z,26.00
2018-07-28T19:28:35.931Z,26.00
2018-07-28T19:31:04.545Z,25.90
2018-07-28T19:33:33.084Z,25.90
2018-07-28T19:36:07.018Z,25.70
2018-07-28T19:38:35.704Z,25.60
2018-07-28T19:41:04.336Z,25.50
2018-07-28T19:43:33.196Z,25.50
2018-07-28T19:46:01.723Z,25.40
2018-07-28T19:48:30.208Z,25.40
2018-07-28T19:50:58.823Z,25.30
2018-07-28T19:53:27.323Z,25.20
2018-07-28T19:55:55.817Z,25.20
2018-07-28T19:58:24.355Z,25.10
2018-07-28T20:00:52.796Z,25.10
2018-07-28T20:03:21.405Z,25.00
2018-07-28T20:05:49.937Z,24.90
2018-07-28T20:08:18.595Z,24.80
2018-07-28T20:10:47.260Z,24.80
2018-07-28T20:13:15.714Z,24.70
2018-07-28T20:15:44.328Z,24.60
2018-07-28T20:18:12.905Z,24.60
2018-07-28T20:20:41.396Z,24.50
2018-07-28T20:23:09.937Z,24.40
2018-07-28T20:25:38.464Z,24.30
2018-07-28T20:28:07.292Z,24.30
2018-07-28T20:30:36.055Z,24.20
2018-07-28T20:33:04.573Z,24.20
2018-07-28T20:35:33.080Z,24.20
2018-07-28T20:38:01.684Z,24.10
2018-07-28T20:40:30.342Z,24.10
2018-07-28T20:42:59.301Z,24.00
2018-07-28T20:45:27.757Z,23.90
2018-07-28T20:47:56.283Z,23.90
2018-07-28T20:50:25.333Z,23.80
2018-07-28T20:52:53.837Z,23.80
2018-07-28T20:55:22.806Z,23.70
2018-07-28T20:57:51.294Z,23.60
2018-07-28T21:00:19.795Z,23.60
2018-07-28T21:02:48.520Z,23.50
2018-07-28T21:05:16.969Z,23.50
2018-07-28T21:07:45.801Z,23.40
2018-07-28T21:10:14.350Z,23.30
2018-07-28T21:12:42.810Z,23.30
2018-07-28T21:15:11.284Z,23.30
2018-07-28T21:17:40.022Z,23.20
2018-07-28T21:20:09.242Z,23.20
2018-07-28T21:22:37.752Z,23.10
2018-07-28T21:25:06.372Z,23.10
2018-07-28T21:27:34.857Z,23.10
2018-07-28T21:30:03.540Z,23.00
2018-07-28T21:32:32.011Z,23.00
2018-07-28T21:35:00.668Z,23.00
2018-07-28T21:37:29.216Z,22.90
2018-07-28T21:39:57.731Z,22.80
2018-07-28T21:42:26.215Z,22.80
2018-07-28T21:44:54.982Z,22.80
2018-07-28T21:47:23.421Z,22.70
2018-07-28T21:49:51.949Z,22.70
2018-07-28T21:52:20.457Z,22.60
2018-07-28T21:54:49.003Z,22.50
2018-07-28T21:57:17.535Z,22.50
2018-07-28T21:59:46.038Z,22.50
2018-07-28T22:02:14.554Z,22.50
2018-07-28T22:04:43.689Z,22.50
2018-07-28T22:07:12.184Z,22.50
2018-07-28T22:09:40.621Z,22.50
2018-07-28T22:12:09.082Z,22.50
2018-07-28T22:14:37.578Z,22.50
2018-07-28T22:17:06.564Z,22.50
2018-07-28T22:19:35.123Z,22.40
2018-07-28T22:22:03.646Z,22.40
2018-07-28T22:24:32.538Z,22.30
2018-07-28T22:27:00.990Z,22.40
2018-07-28T22:29:29.511Z,22.30
2018-07-28T22:31:58.373Z,22.30
2018-07-28T22:34:26.825Z,22.30
2018-07-28T22:36:55.373Z,22.30
2018-07-28T22:39:23.930Z,22.20
2018-07-28T22:41:52.485Z,22.20
2018-07-28T22:44:21.059Z,22.30
2018-07-28T22:46:49.585Z,22.30
2018-07-28T22:49:18.186Z,22.20
2018-07-28T22:51:46.709Z,22.20
2018-07-28T22:54:15.321Z,22.20
2018-07-28T22:59:12.233Z,22.00
2018-07-28T23:01:40.733Z,21.90
2018-07-28T23:04:09.573Z,21.80
2018-07-28T23:06:38.088Z,21.60
2018-07-28T23:09:09.224Z,21.50
2018-07-28T23:11:37.949Z,21.40
2018-07-28T23:14:06.598Z,21.30
2018-07-28T23:16:35.313Z,21.20
2018-07-28T23:19:03.810Z,21.10
2018-07-28T23:21:32.356Z,21.10
2018-07-28T23:24:01.158Z,21.10
2018-07-28T23:26:29.596Z,21.00
2018-07-28T23:28:58.044Z,21.00
2018-07-28T23:31:26.544Z,20.90
2018-07-28T23:33:55.119Z,20.80
2018-07-28T23:36:23.626Z,20.80
2018-07-28T23:38:52.141Z,20.70
2018-07-28T23:41:20.589Z,20.60
2018-07-28T23:43:49.287Z,20.60
2018-07-28T23:46:17.752Z,20.60
2018-07-28T23:48:46.237Z,20.50
2018-07-28T23:51:14.767Z,20.50
2018-07-28T23:53:43.448Z,20.50
2018-07-28T23:56:11.992Z,20.50
2018-07-28T23:58:40.533Z,20.40
